Terminal Aerodrome Forecast
Issued by NWS Sterling, VA

Current Version | Previous Version | Graphics & Text | Print | Product List | Glossary On
Versions: 1 2 3 4 5 6 7 8 9 10 11 12 13 14 15 16 17 18 19 20 21 22
807
FTUS41 KLWX 272127 AAA
TAFDCA
TAF AMD
KDCA 272127Z 2721/2818 17007KT P6SM SCT050
     FM280600 VRB03KT P6SM BKN035
     FM281200 03005KT P6SM VCSH BKN030=

USA.gov is the U.S. government's official web portal to all federal, state and local government web resources and services.